createdAt,value
2023-05-20T00:00:11.149Z,9.17
2023-05-20T00:02:32.574Z,8.60
2023-05-20T00:04:54.146Z,8.80
2023-05-20T00:07:15.369Z,8.23
2023-05-20T00:09:36.739Z,8.53
2023-05-20T00:11:59.496Z,9.30
2023-05-20T00:14:20.853Z,7.60
2023-05-20T00:16:43.995Z,9.40
2023-05-20T00:19:05.334Z,7.73
2023-05-20T00:21:26.711Z,8.03
2023-05-20T00:23:48.165Z,8.10
2023-05-20T00:26:09.651Z,7.63
2023-05-20T00:28:32.342Z,7.47
2023-05-20T00:30:53.363Z,6.73
2023-05-20T00:33:14.631Z,8.10
2023-05-20T00:35:36.215Z,7.43
2023-05-20T00:37:57.805Z,7.40
2023-05-20T00:40:19.172Z,8.87
2023-05-20T00:42:41.511Z,8.20
2023-05-20T00:45:04.065Z,9.70
2023-05-20T00:47:27.858Z,8.93
2023-05-20T00:49:51.538Z,8.50
2023-05-20T00:52:12.840Z,8.53
2023-05-20T00:54:33.944Z,8.57
2023-05-20T00:56:55.707Z,9.00
2023-05-20T00:59:17.430Z,8.40
2023-05-20T01:01:40.053Z,9.10
2023-05-20T01:04:01.379Z,11.83
2023-05-20T01:06:22.469Z,8.70
2023-05-20T01:08:43.713Z,9.33
2023-05-20T01:11:07.705Z,9.00
2023-05-20T01:13:32.449Z,8.73
2023-05-20T01:15:55.252Z,8.03
2023-05-20T01:18:18.586Z,9.43
2023-05-20T01:20:40.482Z,9.90
2023-05-20T01:23:03.308Z,7.80
2023-05-20T01:25:25.064Z,8.20
2023-05-20T01:27:47.052Z,8.97
2023-05-20T01:30:09.084Z,11.27
2023-05-20T01:32:33.197Z,10.47
2023-05-20T01:34:54.543Z,10.63
2023-05-20T01:37:15.985Z,10.80
2023-05-20T01:39:39.524Z,10.00
2023-05-20T01:42:02.585Z,10.00
2023-05-20T01:44:24.114Z,10.50
2023-05-20T01:46:49.869Z,10.47
2023-05-20T01:49:10.921Z,9.60
2023-05-20T01:51:34.357Z,9.67
2023-05-20T01:53:55.396Z,9.77
2023-05-20T01:56:18.114Z,12.57
2023-05-20T01:58:39.540Z,11.40
2023-05-20T02:01:01.650Z,10.20
2023-05-20T02:03:23.172Z,11.00
2023-05-20T02:05:45.125Z,9.90
2023-05-20T02:08:06.906Z,10.50
2023-05-20T02:10:27.999Z,10.20
2023-05-20T02:12:51.400Z,10.10
2023-05-20T02:15:12.803Z,10.67
2023-05-20T02:17:34.111Z,11.43
2023-05-20T02:19:55.434Z,10.40
2023-05-20T02:22:16.840Z,11.37
2023-05-20T02:24:38.320Z,10.40
2023-05-20T02:26:59.603Z,10.20
2023-05-20T02:29:23.163Z,10.43
2023-05-20T02:31:44.180Z,10.37
2023-05-20T02:34:05.639Z,12.20
2023-05-20T02:36:27.901Z,10.83
2023-05-20T02:38:49.331Z,9.97
2023-05-20T02:41:10.777Z,9.97
2023-05-20T02:43:32.538Z,9.50
2023-05-20T02:45:54.936Z,9.27
2023-05-20T02:48:16.332Z,9.57
2023-05-20T02:50:39.340Z,9.23
2023-05-20T02:53:00.826Z,8.97
2023-05-20T02:55:23.679Z,9.03
2023-05-20T02:57:45.113Z,8.83
2023-05-20T03:00:07.286Z,9.83
2023-05-20T03:02:29.873Z,8.10
2023-05-20T03:04:53.952Z,9.43
2023-05-20T03:07:19.408Z,11.97
2023-05-20T03:09:40.462Z,9.63
2023-05-20T03:12:01.871Z,9.60
2023-05-20T03:14:23.244Z,9.67
2023-05-20T03:16:44.492Z,10.90
2023-05-20T03:19:07.176Z,9.43
2023-05-20T03:21:29.254Z,10.10
2023-05-20T03:23:50.532Z,9.47
2023-05-20T03:26:11.823Z,9.53
2023-05-20T03:28:33.130Z,11.50
2023-05-20T03:30:55.035Z,9.67
2023-05-20T03:33:16.742Z,10.30
2023-05-20T03:35:39.397Z,10.27
2023-05-20T03:38:01.821Z,9.57
2023-05-20T03:40:23.154Z,10.37
2023-05-20T03:42:44.593Z,10.63
2023-05-20T03:45:06.796Z,9.17
2023-05-20T03:47:28.153Z,10.80
2023-05-20T03:49:49.445Z,10.53
2023-05-20T03:52:12.178Z,11.93
2023-05-20T03:54:33.426Z,9.67
2023-05-20T03:56:54.833Z,9.80
2023-05-20T03:59:15.888Z,9.00
2023-05-20T04:01:37.346Z,9.70
2023-05-20T04:03:58.514Z,10.07
2023-05-20T04:06:19.891Z,8.97
2023-05-20T04:08:42.988Z,9.63
2023-05-20T04:11:04.394Z,9.93
2023-05-20T04:13:26.374Z,9.53
2023-05-20T04:15:48.292Z,9.30
2023-05-20T04:18:10.450Z,9.10
2023-05-20T04:20:32.268Z,9.03
2023-05-20T04:22:54.234Z,8.93
2023-05-20T04:25:16.889Z,8.73
2023-05-20T04:27:38.189Z,9.00
2023-05-20T04:29:59.269Z,8.23
2023-05-20T04:32:21.104Z,8.80
2023-05-20T04:34:42.354Z,8.63
2023-05-20T04:37:03.783Z,10.73
2023-05-20T04:39:25.073Z,10.90
2023-05-20T04:41:48.397Z,8.53
2023-05-20T04:44:09.739Z,9.40
2023-05-20T04:46:31.683Z,8.70
2023-05-20T04:48:53.883Z,9.13
2023-05-20T04:51:16.467Z,8.40
2023-05-20T04:53:38.154Z,8.43
2023-05-20T04:55:59.333Z,8.53
2023-05-20T04:58:24.425Z,8.13
2023-05-20T05:00:46.052Z,9.20
2023-05-20T05:03:07.548Z,9.03
2023-05-20T05:05:29.070Z,8.60
2023-05-20T05:07:50.538Z,8.67
2023-05-20T05:10:12.556Z,9.10
2023-05-20T05:12:33.788Z,9.10
2023-05-20T05:14:57.698Z,8.80
2023-05-20T05:17:19.021Z,9.97
2023-05-20T05:19:40.386Z,9.10
2023-05-20T05:22:01.620Z,8.17
2023-05-20T05:24:22.785Z,8.67
2023-05-20T05:26:44.313Z,10.57
2023-05-20T05:29:05.668Z,9.07
2023-05-20T05:31:28.085Z,11.07
2023-05-20T05:33:49.307Z,8.93
2023-05-20T05:36:10.536Z,10.03
2023-05-20T05:38:31.792Z,9.13
2023-05-20T05:40:53.159Z,9.77
2023-05-20T05:43:14.634Z,9.77
2023-05-20T05:45:36.077Z,9.60
2023-05-20T05:47:59.364Z,8.63
2023-05-20T05:50:20.656Z,8.70
2023-05-20T05:52:42.180Z,9.33
2023-05-20T05:55:03.368Z,8.60
2023-05-20T05:57:24.374Z,8.93
2023-05-20T05:59:45.784Z,8.57
2023-05-20T06:02:07.236Z,8.87
2023-05-20T06:04:30.127Z,9.37
2023-05-20T06:06:51.408Z,8.27
2023-05-20T06:09:12.696Z,8.57
2023-05-20T06:11:34.024Z,8.83
2023-05-20T06:13:55.193Z,7.93
2023-05-20T06:16:16.592Z,8.27
2023-05-20T06:18:37.913Z,8.03
2023-05-20T06:21:00.852Z,9.67
2023-05-20T06:23:22.252Z,7.10
2023-05-20T06:25:43.706Z,7.37
2023-05-20T06:28:05.179Z,7.30
2023-05-20T06:30:26.290Z,7.40
2023-05-20T06:32:47.812Z,6.60
2023-05-20T06:35:09.508Z,6.60
2023-05-20T06:37:32.148Z,6.17
2023-05-20T06:39:54.123Z,6.50
2023-05-20T06:42:15.515Z,6.93
2023-05-20T06:44:36.731Z,6.27
2023-05-20T06:46:57.974Z,6.57
2023-05-20T06:49:19.174Z,6.57
2023-05-20T06:51:40.417Z,6.80
2023-05-20T06:54:03.025Z,6.50
2023-05-20T06:56:24.336Z,8.70
2023-05-20T06:58:45.757Z,6.80
2023-05-20T07:01:07.084Z,6.90
2023-05-20T07:03:28.608Z,7.00
2023-05-20T07:05:49.911Z,7.57
2023-05-20T07:08:11.336Z,6.97
2023-05-20T07:10:34.641Z,7.03
2023-05-20T07:12:55.962Z,7.80
2023-05-20T07:15:17.924Z,6.73
2023-05-20T07:17:38.961Z,7.20
2023-05-20T07:20:00.253Z,7.23
2023-05-20T07:22:21.506Z,7.70
2023-05-20T07:24:42.855Z,7.97
2023-05-20T07:27:05.457Z,7.10
2023-05-20T07:29:26.515Z,8.03
2023-05-20T07:31:47.701Z,6.70
2023-05-20T07:34:09.050Z,7.17
2023-05-20T07:36:30.422Z,7.60
2023-05-20T07:39:01.680Z,7.13
2023-05-20T07:41:24.539Z,7.17
2023-05-20T07:43:47.123Z,9.60
2023-05-20T07:46:08.761Z,7.53
2023-05-20T07:48:29.852Z,7.40
2023-05-20T07:50:51.114Z,6.90
2023-05-20T07:53:12.394Z,7.53
2023-05-20T07:55:34.958Z,7.17
2023-05-20T07:57:56.752Z,7.10
2023-05-20T08:00:19.473Z,6.77
2023-05-20T08:02:40.580Z,7.47
2023-05-20T08:05:01.573Z,10.23
2023-05-20T08:07:22.710Z,7.97
2023-05-20T08:09:46.689Z,7.27
2023-05-20T08:12:07.991Z,6.73
2023-05-20T08:14:29.054Z,6.93
2023-05-20T08:16:54.855Z,7.03
2023-05-20T08:19:16.408Z,7.17
2023-05-20T08:21:37.652Z,7.00
2023-05-20T08:23:59.121Z,7.37
2023-05-20T08:26:20.515Z,8.00
2023-05-20T08:28:41.899Z,7.57
2023-05-20T08:31:03.558Z,7.10
2023-05-20T08:33:26.637Z,7.47
2023-05-20T08:35:47.655Z,7.73
2023-05-20T08:38:08.874Z,7.10
2023-05-20T08:40:30.295Z,7.20
2023-05-20T08:42:52.873Z,7.50
2023-05-20T08:45:16.698Z,7.50
2023-05-20T08:47:38.190Z,6.77
2023-05-20T08:50:00.603Z,7.73
2023-05-20T08:52:21.974Z,7.57
2023-05-20T08:54:46.043Z,6.77
2023-05-20T08:57:06.970Z,7.63
2023-05-20T08:59:28.168Z,7.30
2023-05-20T09:01:49.761Z,7.40
2023-05-20T09:04:11.176Z,7.20
2023-05-20T09:06:43.720Z,7.17
2023-05-20T09:09:05.044Z,6.93
2023-05-20T09:11:27.241Z,7.03
2023-05-20T09:13:48.402Z,6.83
2023-05-20T09:16:10.953Z,6.83
2023-05-20T09:18:31.768Z,6.73
2023-05-20T09:20:53.864Z,6.40
2023-05-20T09:23:16.694Z,6.73
2023-05-20T09:25:38.080Z,7.10
2023-05-20T09:27:59.354Z,6.50
2023-05-20T09:30:20.892Z,6.60
2023-05-20T09:32:42.171Z,7.10
2023-05-20T09:35:06.225Z,6.40
2023-05-20T09:37:28.794Z,6.97
2023-05-20T09:39:57.918Z,6.77
2023-05-20T09:42:22.029Z,6.47
2023-05-20T09:44:45.121Z,5.97
2023-05-20T09:47:08.548Z,5.50
2023-05-20T09:49:30.041Z,6.40
2023-05-20T09:51:52.233Z,5.63
2023-05-20T09:54:13.867Z,7.37
2023-05-20T09:56:37.428Z,6.27
2023-05-20T09:58:59.938Z,6.30
2023-05-20T10:01:21.076Z,6.50
2023-05-20T10:03:44.134Z,5.90
2023-05-20T10:06:20.670Z,6.00
2023-05-20T10:08:49.859Z,5.23
2023-05-20T10:11:15.950Z,6.37
2023-05-20T10:13:46.369Z,6.53
2023-05-20T10:16:11.335Z,6.10
2023-05-20T10:18:37.896Z,6.50
2023-05-20T10:20:59.014Z,6.00
2023-05-20T10:23:24.129Z,6.30
2023-05-20T10:25:51.442Z,5.67
2023-05-20T10:28:12.968Z,5.93
2023-05-20T10:30:36.380Z,6.03
2023-05-20T10:33:00.765Z,5.77
2023-05-20T10:35:22.870Z,5.80
2023-05-20T10:37:45.189Z,6.47
2023-05-20T10:40:08.086Z,5.40
2023-05-20T10:42:30.423Z,6.37
2023-05-20T10:44:52.068Z,5.00
2023-05-20T10:49:41.997Z,5.60
2023-05-20T10:52:03.116Z,5.40
2023-05-20T10:54:24.647Z,5.80
2023-05-20T10:56:52.410Z,5.50
2023-05-20T10:59:13.924Z,5.63
2023-05-20T11:01:36.159Z,5.53
2023-05-20T11:03:58.960Z,5.60
2023-05-20T11:06:20.357Z,6.10
2023-05-20T11:08:41.637Z,6.20
2023-05-20T11:11:02.914Z,5.80
2023-05-20T11:13:24.224Z,5.63
2023-05-20T11:15:45.610Z,6.13
2023-05-20T11:18:07.016Z,5.53
2023-05-20T11:20:30.189Z,5.87
2023-05-20T11:22:51.486Z,6.17
2023-05-20T11:25:12.683Z,5.20
2023-05-20T11:27:34.292Z,5.13
2023-05-20T11:29:56.706Z,6.03
2023-05-20T11:32:20.586Z,5.33
2023-05-20T11:34:42.727Z,5.07
2023-05-20T11:37:07.981Z,5.17
2023-05-20T11:39:30.775Z,5.30
2023-05-20T11:41:52.298Z,5.33
2023-05-20T11:44:13.849Z,5.60
2023-05-20T11:46:42.016Z,5.23
2023-05-20T11:49:03.155Z,4.93
2023-05-20T11:51:25.478Z,5.53
2023-05-20T11:53:48.830Z,7.50
2023-05-20T11:56:10.164Z,4.93
2023-05-20T11:58:31.941Z,5.20
2023-05-20T12:00:59.571Z,6.07
2023-05-20T12:03:31.939Z,5.87
2023-05-20T12:05:53.705Z,5.13
2023-05-20T12:08:15.117Z,5.40
2023-05-20T12:10:38.166Z,5.37
2023-05-20T12:12:59.411Z,4.73
2023-05-20T12:15:20.772Z,4.90
2023-05-20T12:17:45.775Z,6.20
2023-05-20T12:20:07.666Z,5.87
2023-05-20T12:22:29.161Z,6.03
2023-05-20T12:24:51.159Z,6.67
2023-05-20T12:27:14.950Z,6.17
2023-05-20T12:29:36.966Z,5.47
2023-05-20T12:31:58.070Z,5.60
2023-05-20T12:34:19.150Z,5.33
2023-05-20T12:36:40.356Z,5.33
2023-05-20T12:39:01.636Z,4.73
2023-05-20T12:41:22.839Z,4.83
2023-05-20T12:43:45.452Z,4.83
2023-05-20T12:46:06.954Z,6.83
2023-05-20T12:48:28.263Z,4.67
2023-05-20T12:50:49.613Z,5.00
2023-05-20T12:53:10.887Z,5.10
2023-05-20T12:55:32.249Z,7.17
2023-05-20T12:57:54.051Z,4.73
2023-05-20T13:00:17.590Z,4.50
2023-05-20T13:02:40.132Z,4.33
2023-05-20T13:05:01.637Z,4.17
2023-05-20T13:07:22.827Z,4.40
2023-05-20T13:09:45.161Z,4.47
2023-05-20T13:12:06.558Z,7.10
2023-05-20T13:14:27.894Z,4.27
2023-05-20T13:16:50.506Z,4.33
2023-05-20T13:19:11.802Z,3.90
2023-05-20T13:21:34.464Z,3.87
2023-05-20T13:23:55.723Z,4.07
2023-05-20T13:26:18.685Z,4.93
2023-05-20T13:28:40.077Z,4.20
2023-05-20T13:31:03.373Z,5.73
2023-05-20T13:33:26.150Z,4.40
2023-05-20T13:35:47.586Z,5.00
2023-05-20T13:38:08.837Z,4.70
2023-05-20T13:40:30.146Z,4.13
2023-05-20T13:42:51.374Z,4.10
2023-05-20T13:45:12.795Z,3.70
2023-05-20T13:47:33.963Z,4.50
2023-05-20T13:49:56.572Z,3.93
2023-05-20T13:52:17.960Z,4.10
2023-05-20T13:54:40.060Z,3.93
2023-05-20T13:57:01.380Z,5.43
2023-05-20T13:59:22.382Z,4.70
2023-05-20T14:01:45.306Z,4.27
2023-05-20T14:04:06.712Z,3.80
2023-05-20T14:06:29.469Z,4.17
2023-05-20T14:08:50.831Z,4.27
2023-05-20T14:11:11.904Z,4.00
2023-05-20T14:13:33.126Z,4.20
2023-05-20T14:15:55.645Z,6.00
2023-05-20T14:18:17.121Z,4.10
2023-05-20T14:20:38.436Z,3.93
2023-05-20T14:23:01.811Z,5.27
2023-05-20T14:25:22.834Z,4.93
2023-05-20T14:27:44.317Z,4.70
2023-05-20T14:30:06.211Z,4.00
2023-05-20T14:32:27.588Z,3.80
2023-05-20T14:34:48.821Z,4.40
2023-05-20T14:37:12.478Z,5.20
2023-05-20T14:39:34.803Z,4.13
2023-05-20T14:41:56.077Z,5.63
2023-05-20T14:44:17.274Z,4.60
2023-05-20T14:46:38.506Z,4.23
2023-05-20T14:48:59.730Z,4.20
2023-05-20T14:51:20.892Z,4.23
2023-05-20T14:53:42.265Z,4.00
2023-05-20T14:56:05.269Z,4.83
2023-05-20T14:58:26.255Z,4.80
2023-05-20T15:00:47.872Z,4.40
2023-05-20T15:03:09.314Z,3.97
2023-05-20T15:05:30.936Z,4.57
2023-05-20T15:07:52.307Z,5.40
2023-05-20T15:10:13.753Z,5.20
2023-05-20T15:12:36.461Z,4.30
2023-05-20T15:14:57.783Z,4.93
2023-05-20T15:17:19.087Z,4.83
2023-05-20T15:19:41.791Z,4.37
2023-05-20T15:22:03.245Z,4.77
2023-05-20T15:24:24.166Z,4.43
2023-05-20T15:26:45.760Z,4.37
2023-05-20T15:29:08.357Z,4.17
2023-05-20T15:31:29.875Z,6.27
2023-05-20T15:33:51.497Z,4.17
2023-05-20T15:36:12.832Z,4.50
2023-05-20T15:38:34.216Z,4.20
2023-05-20T15:40:56.796Z,4.20
2023-05-20T15:43:17.789Z,5.60
2023-05-20T15:45:40.605Z,5.60
2023-05-20T15:48:02.101Z,4.53
2023-05-20T15:50:23.914Z,4.50
2023-05-20T15:52:45.630Z,4.40
2023-05-20T15:55:07.466Z,4.30
2023-05-20T15:57:29.914Z,4.67
2023-05-20T15:59:51.174Z,4.80
2023-05-20T16:02:14.111Z,5.17
2023-05-20T16:04:35.599Z,4.37
2023-05-20T16:06:56.958Z,4.17
2023-05-20T16:09:18.047Z,4.77
2023-05-20T16:11:39.269Z,4.60
2023-05-20T16:14:00.591Z,4.57
2023-05-20T16:16:22.002Z,4.43
2023-05-20T16:18:44.587Z,4.37
2023-05-20T16:21:07.814Z,4.43
2023-05-20T16:23:29.134Z,5.00
2023-05-20T16:25:50.637Z,4.43
2023-05-20T16:28:11.576Z,4.50
2023-05-20T16:30:32.939Z,4.97
2023-05-20T16:32:54.385Z,4.43
2023-05-20T16:35:17.032Z,4.50
2023-05-20T16:37:38.209Z,4.40
2023-05-20T16:40:00.383Z,5.50
2023-05-20T16:42:21.718Z,4.33
2023-05-20T16:44:42.894Z,4.50
2023-05-20T16:47:04.302Z,3.83
2023-05-20T16:49:25.847Z,4.13
2023-05-20T16:51:48.629Z,4.47
2023-05-20T16:54:10.130Z,4.57
2023-05-20T16:56:31.415Z,4.50
2023-05-20T16:58:53.280Z,4.17
2023-05-20T17:01:14.514Z,5.33
2023-05-20T17:03:35.636Z,4.03
2023-05-20T17:05:57.188Z,3.93
2023-05-20T17:08:19.606Z,4.43
2023-05-20T17:10:41.081Z,3.90
2023-05-20T17:13:02.102Z,4.13
2023-05-20T17:15:23.960Z,3.80
2023-05-20T17:17:45.486Z,4.00
2023-05-20T17:20:07.710Z,3.87
2023-05-20T17:22:28.738Z,3.97
2023-05-20T17:24:51.845Z,3.63
2023-05-20T17:27:12.985Z,3.93
2023-05-20T17:29:34.416Z,5.00
2023-05-20T17:31:55.646Z,6.77
2023-05-20T17:34:17.068Z,3.90
2023-05-20T17:36:38.174Z,9.67
2023-05-20T17:38:59.457Z,4.07
2023-05-20T17:41:23.114Z,4.93
2023-05-20T17:43:44.028Z,4.90
2023-05-20T17:46:05.674Z,5.67
2023-05-20T17:48:27.192Z,5.10
2023-05-20T17:50:48.577Z,5.47
2023-05-20T17:53:09.916Z,4.80
2023-05-20T17:55:32.536Z,7.27
2023-05-20T17:57:55.037Z,4.90
2023-05-20T18:00:21.216Z,5.23
2023-05-20T18:02:47.233Z,5.00
2023-05-20T18:05:10.781Z,4.83
2023-05-20T18:07:33.323Z,5.03
2023-05-20T18:09:55.260Z,5.20
2023-05-20T18:12:16.325Z,5.13
2023-05-20T18:14:38.819Z,4.67
2023-05-20T18:17:00.118Z,5.57
2023-05-20T18:19:21.630Z,5.20
2023-05-20T18:21:43.063Z,5.10
2023-05-20T18:24:04.417Z,5.80
2023-05-20T18:26:26.357Z,5.07
2023-05-20T18:28:47.331Z,6.07
2023-05-20T18:31:10.139Z,5.77
2023-05-20T18:33:31.834Z,5.47
2023-05-20T18:35:54.018Z,5.70
2023-05-20T18:38:15.420Z,5.60
2023-05-20T18:40:37.269Z,5.43
2023-05-20T18:42:59.083Z,5.50
2023-05-20T18:45:20.624Z,5.97
2023-05-20T18:47:43.409Z,5.53
2023-05-20T18:50:04.775Z,5.97
2023-05-20T18:52:25.943Z,5.77
2023-05-20T18:54:47.283Z,5.70
2023-05-20T18:57:08.593Z,8.23
2023-05-20T18:59:29.805Z,5.90
2023-05-20T19:01:51.073Z,6.17
2023-05-20T19:04:13.775Z,7.33
2023-05-20T19:06:35.301Z,5.97
2023-05-20T19:08:56.834Z,7.70
2023-05-20T19:11:18.279Z,5.50
2023-05-20T19:13:39.751Z,5.70
2023-05-20T19:16:01.293Z,6.23
2023-05-20T19:18:22.800Z,5.90
2023-05-20T19:20:45.775Z,6.27
2023-05-20T19:23:06.831Z,6.17
2023-05-20T19:25:28.159Z,6.97
2023-05-20T19:27:49.370Z,6.23
2023-05-20T19:30:11.354Z,5.93
2023-05-20T19:32:32.387Z,5.93
2023-05-20T19:34:53.467Z,6.90
2023-05-20T19:37:16.010Z,6.73
2023-05-20T19:39:37.069Z,7.80
2023-05-20T19:41:58.384Z,6.97
2023-05-20T19:44:20.059Z,10.10
2023-05-20T19:46:42.071Z,8.03
2023-05-20T19:49:03.650Z,7.57
2023-05-20T19:51:24.963Z,8.67
2023-05-20T19:53:47.624Z,7.37
2023-05-20T19:56:08.928Z,7.10
2023-05-20T19:58:30.421Z,14.30
2023-05-20T20:00:51.641Z,9.70
2023-05-20T20:03:13.806Z,8.80
2023-05-20T20:05:35.396Z,7.57
2023-05-20T20:07:57.010Z,9.20
2023-05-20T20:10:19.781Z,8.20
2023-05-20T20:12:41.379Z,7.70
2023-05-20T20:15:02.612Z,7.30
2023-05-20T20:17:24.953Z,7.73
2023-05-20T20:19:48.007Z,7.43
2023-05-20T20:22:09.416Z,7.40
2023-05-20T20:24:31.086Z,7.30
2023-05-20T20:26:56.921Z,7.40
2023-05-20T20:29:18.724Z,8.23
2023-05-20T20:31:40.038Z,9.97
2023-05-20T20:34:01.419Z,10.80
2023-05-20T20:36:22.774Z,9.30
2023-05-20T20:38:47.080Z,9.97
2023-05-20T20:41:09.529Z,9.83
2023-05-20T20:43:34.879Z,10.03
2023-05-20T20:45:56.398Z,10.57
2023-05-20T20:48:18.866Z,11.10
2023-05-20T20:50:40.102Z,11.80
2023-05-20T20:53:01.249Z,11.67
2023-05-20T20:55:24.088Z,11.37
2023-05-20T20:57:45.375Z,9.87
2023-05-20T21:00:16.010Z,14.17
2023-05-20T21:02:37.130Z,10.30
2023-05-20T21:04:59.173Z,9.60
2023-05-20T21:07:20.163Z,10.17
2023-05-20T21:09:41.539Z,11.23
2023-05-20T21:12:06.524Z,9.00
2023-05-20T21:14:28.118Z,9.70
2023-05-20T21:16:50.834Z,10.77
2023-05-20T21:19:12.460Z,10.20
2023-05-20T21:21:33.836Z,10.37
2023-05-20T21:23:56.518Z,13.97
2023-05-20T21:26:17.462Z,9.47
2023-05-20T21:28:39.282Z,9.57
2023-05-20T21:31:00.713Z,8.43
2023-05-20T21:33:23.044Z,9.47
2023-05-20T21:35:44.166Z,9.50
2023-05-20T21:38:05.453Z,9.83
2023-05-20T21:40:26.760Z,9.83
2023-05-20T21:42:48.814Z,9.20
2023-05-20T21:45:10.536Z,9.70
2023-05-20T21:47:31.878Z,10.00
2023-05-20T21:49:54.699Z,9.77
2023-05-20T21:52:15.859Z,9.93
2023-05-20T21:54:36.864Z,10.20
2023-05-20T21:56:58.298Z,10.07
2023-05-20T21:59:19.425Z,9.83
2023-05-20T22:01:40.727Z,9.83
2023-05-20T22:04:03.234Z,10.47
2023-05-20T22:06:26.460Z,9.53
2023-05-20T22:08:48.944Z,10.70
2023-05-20T22:11:10.140Z,9.83
2023-05-20T22:13:32.936Z,9.93
2023-05-20T22:15:54.481Z,9.67
2023-05-20T22:18:15.594Z,10.03
2023-05-20T22:20:38.601Z,10.27
2023-05-20T22:23:01.311Z,9.40
2023-05-20T22:25:22.668Z,9.70
2023-05-20T22:27:44.082Z,9.70
2023-05-20T22:30:08.179Z,10.13
2023-05-20T22:32:29.405Z,10.23
2023-05-20T22:34:53.320Z,10.30
2023-05-20T22:37:14.378Z,9.90
2023-05-20T22:39:37.183Z,9.97
2023-05-20T22:41:58.457Z,10.07
2023-05-20T22:44:20.393Z,10.57
2023-05-20T22:46:41.755Z,10.03
2023-05-20T22:49:03.496Z,10.27
2023-05-20T22:51:24.862Z,10.60
2023-05-20T22:53:45.862Z,10.50
2023-05-20T22:56:08.855Z,11.77
2023-05-20T22:58:39.262Z,11.27
2023-05-20T23:01:00.552Z,9.93
2023-05-20T23:03:22.104Z,10.73
2023-05-20T23:05:43.388Z,9.93
2023-05-20T23:08:04.715Z,9.90
2023-05-20T23:10:26.322Z,12.27
2023-05-20T23:12:49.005Z,10.97
2023-05-20T23:15:10.946Z,11.57
2023-05-20T23:17:32.300Z,13.13
2023-05-20T23:19:53.597Z,11.80
2023-05-20T23:22:15.102Z,11.30
2023-05-20T23:24:36.501Z,11.00
2023-05-20T23:26:59.322Z,11.53
2023-05-20T23:29:23.086Z,11.93
2023-05-20T23:31:44.051Z,11.17
2023-05-20T23:34:05.446Z,11.20
2023-05-20T23:36:26.808Z,11.77
2023-05-20T23:38:48.243Z,11.10
2023-05-20T23:41:09.537Z,10.60
2023-05-20T23:43:31.043Z,12.00
2023-05-20T23:45:53.689Z,11.33
2023-05-20T23:48:15.049Z,12.60
2023-05-20T23:50:36.239Z,12.53
2023-05-20T23:52:57.630Z,12.33
2023-05-20T23:55:18.799Z,12.57
2023-05-20T23:57:39.828Z,12.17
